createdAt,value
2022-09-15T00:00:30.401Z,1.8
2022-09-15T00:08:02.671Z,1.8
2022-09-15T00:15:34.992Z,1.8
2022-09-15T00:23:07.298Z,1.8
2022-09-15T00:30:39.618Z,1.7
2022-09-15T00:38:11.935Z,1.7
2022-09-15T00:45:44.287Z,1.7
2022-09-15T00:53:16.665Z,1.7
2022-09-15T01:00:48.996Z,1.7
2022-09-15T01:08:21.311Z,1.7
2022-09-15T01:15:53.589Z,1.7
2022-09-15T01:23:25.866Z,1.7
2022-09-15T01:30:58.141Z,1.6
2022-09-15T01:38:30.449Z,1.6
2022-09-15T01:46:02.791Z,1.6
2022-09-15T01:53:35.079Z,1.6
2022-09-15T02:01:07.471Z,1.6
2022-09-15T02:08:39.822Z,1.6
2022-09-15T02:16:12.131Z,1.6
2022-09-15T02:23:44.468Z,1.6
2022-09-15T02:31:16.794Z,1.8
2022-09-15T02:38:49.142Z,1.8
2022-09-15T02:42:38.623Z,1.8
2022-09-15T02:43:25.943Z,1.8
2022-09-15T02:44:13.216Z,1.8
2022-09-15T02:45:00.481Z,1.8
2022-09-15T02:52:32.789Z,1.8
2022-09-15T03:00:05.068Z,1.8
2022-09-15T03:07:37.343Z,1.8
2022-09-15T03:15:09.631Z,1.8
2022-09-15T03:22:41.953Z,1.8
2022-09-15T03:30:14.241Z,1.6
2022-09-15T03:37:46.510Z,1.6
2022-09-15T03:45:18.816Z,1.6
2022-09-15T03:52:53.599Z,1.6
2022-09-15T04:00:29.059Z,1.6
2022-09-15T04:08:01.345Z,1.6
2022-09-15T04:15:33.626Z,1.6
2022-09-15T04:21:53.344Z,1.6
2022-09-15T04:22:40.613Z,1.7
2022-09-15T04:23:27.874Z,1.7
2022-09-15T04:24:15.145Z,1.7
2022-09-15T04:25:02.455Z,1.7
2022-09-15T04:25:49.719Z,1.7
2022-09-15T04:26:37.005Z,1.7
2022-09-15T04:27:24.319Z,1.7
2022-09-15T04:28:11.595Z,1.7
2022-09-15T04:29:03.701Z,1.7
2022-09-15T04:29:51.660Z,1.7
2022-09-15T04:30:39.070Z,1.7
2022-09-15T04:31:26.391Z,1.7
2022-09-15T04:32:13.713Z,1.7
2022-09-15T04:33:01.130Z,1.7
2022-09-15T04:33:48.390Z,1.7
2022-09-15T04:34:40.587Z,1.7
2022-09-15T04:35:28.581Z,1.7
2022-09-15T04:36:16.013Z,1.7
2022-09-15T04:37:03.277Z,1.7
2022-09-15T04:37:50.545Z,1.7
2022-09-15T04:38:37.985Z,1.7
2022-09-15T04:39:25.267Z,1.7
2022-09-15T04:40:12.614Z,1.7
2022-09-15T04:40:59.953Z,1.7
2022-09-15T04:41:47.237Z,1.7
2022-09-15T04:42:34.526Z,1.7
2022-09-15T04:43:21.916Z,1.7
2022-09-15T04:44:09.194Z,1.7
2022-09-15T04:44:56.455Z,1.7
2022-09-15T04:45:43.836Z,1.7
2022-09-15T04:46:31.193Z,1.7
2022-09-15T04:47:18.495Z,1.7
2022-09-15T04:48:05.899Z,1.7
2022-09-15T04:48:53.192Z,1.7
2022-09-15T04:49:40.464Z,1.7
2022-09-15T04:50:27.852Z,1.7
2022-09-15T04:51:15.150Z,1.7
2022-09-15T04:52:03.986Z,1.7
2022-09-15T04:52:53.908Z,1.7
2022-09-15T04:53:41.399Z,1.7
2022-09-15T04:54:28.669Z,1.7
2022-09-15T04:55:15.925Z,1.7
2022-09-15T04:56:03.359Z,1.7
2022-09-15T04:56:50.617Z,1.7
2022-09-15T04:57:37.888Z,1.7
2022-09-15T04:58:25.323Z,1.7
2022-09-15T04:59:12.584Z,1.7
2022-09-15T04:59:59.870Z,1.7
2022-09-15T05:00:47.314Z,1.7
2022-09-15T05:01:34.690Z,1.7
2022-09-15T05:02:22.078Z,1.7
2022-09-15T05:03:09.436Z,1.7
2022-09-15T05:03:56.701Z,1.7
2022-09-15T05:04:43.977Z,1.7
2022-09-15T05:05:31.642Z,1.7
2022-09-15T05:06:18.915Z,1.7
2022-09-15T05:07:06.189Z,1.7
2022-09-15T05:07:53.628Z,1.7
2022-09-15T05:08:40.892Z,1.7
2022-09-15T05:09:28.148Z,1.7
2022-09-15T05:10:15.552Z,1.7
2022-09-15T05:11:02.849Z,1.7
2022-09-15T05:11:50.129Z,1.7
2022-09-15T05:12:37.556Z,1.7
2022-09-15T05:13:24.832Z,1.7
2022-09-15T05:14:12.089Z,1.7
2022-09-15T05:14:59.532Z,1.7
2022-09-15T05:15:46.844Z,1.7
2022-09-15T05:16:34.395Z,1.7
2022-09-15T05:17:26.132Z,1.7
2022-09-15T05:18:14.010Z,1.7
2022-09-15T05:19:01.313Z,1.7
2022-09-15T05:19:48.587Z,6.7
2022-09-15T05:20:35.848Z,6.7
2022-09-15T05:21:23.279Z,6.7
2022-09-15T05:22:10.557Z,6.7
2022-09-15T05:22:57.801Z,6.7
2022-09-15T05:23:45.252Z,6.7
2022-09-15T05:24:32.553Z,6.7
2022-09-15T05:25:19.889Z,6.7
2022-09-15T05:26:07.685Z,6.7
2022-09-15T05:26:55.069Z,6.7
2022-09-15T05:27:42.511Z,6.7
2022-09-15T05:28:29.777Z,6.7
2022-09-15T05:29:17.472Z,6.7
2022-09-15T05:30:34.914Z,6.7
2022-09-15T05:31:02.040Z,6.7
2022-09-15T05:31:49.661Z,6.7
2022-09-15T05:32:37.316Z,6.7
2022-09-15T05:33:24.635Z,6.7
2022-09-15T05:34:12.125Z,6.7
2022-09-15T05:34:59.550Z,6.7
2022-09-15T05:35:46.821Z,6.7
2022-09-15T05:36:34.217Z,6.7
2022-09-15T05:37:21.505Z,6.7
2022-09-15T05:38:08.772Z,6.7
2022-09-15T05:38:56.206Z,6.7
2022-09-15T05:39:43.480Z,6.7
2022-09-15T05:40:30.950Z,6.7
2022-09-15T05:41:18.272Z,6.7
2022-09-15T05:42:05.535Z,6.7
2022-09-15T05:42:52.891Z,6.7
2022-09-15T05:43:40.259Z,6.7
2022-09-15T05:44:27.555Z,6.7
2022-09-15T05:45:15.001Z,6.7
2022-09-15T05:46:02.428Z,6.7
2022-09-15T05:46:49.862Z,6.7
2022-09-15T05:47:37.176Z,6.7
2022-09-15T05:48:24.576Z,6.7
2022-09-15T05:49:12.277Z,6.7
2022-09-15T05:49:59.787Z,6.7
2022-09-15T05:50:47.045Z,6.7
2022-09-15T05:51:34.321Z,6.7
2022-09-15T05:52:21.601Z,6.7
2022-09-15T05:53:09.041Z,6.7
2022-09-15T05:53:56.324Z,6.7
2022-09-15T05:54:43.584Z,6.7
2022-09-15T05:55:31.061Z,6.7
2022-09-15T05:56:18.332Z,6.7
2022-09-15T05:57:05.598Z,6.7
2022-09-15T05:57:53.189Z,6.7
2022-09-15T05:58:40.493Z,6.7
2022-09-15T05:59:27.770Z,6.7
2022-09-15T06:00:15.648Z,6.7
2022-09-15T06:01:03.216Z,6.7
2022-09-15T06:01:50.533Z,6.7
2022-09-15T06:02:37.886Z,6.7
2022-09-15T06:03:30.096Z,6.7
2022-09-15T06:04:18.182Z,6.7
2022-09-15T06:05:05.592Z,6.7
2022-09-15T06:05:52.859Z,6.7
2022-09-15T06:06:40.140Z,6.7
2022-09-15T06:07:27.520Z,6.7
2022-09-15T06:08:14.789Z,6.7
2022-09-15T06:09:02.411Z,6.7
2022-09-15T06:09:49.953Z,6.7
2022-09-15T06:10:37.509Z,6.7
2022-09-15T06:11:24.804Z,6.7
2022-09-15T06:12:12.328Z,6.7
2022-09-15T06:12:59.600Z,6.7
2022-09-15T06:13:46.888Z,6.7
2022-09-15T06:14:34.153Z,6.7
2022-09-15T06:15:21.602Z,6.7
2022-09-15T06:16:08.910Z,6.7
2022-09-15T06:16:56.200Z,6.7
2022-09-15T06:17:43.659Z,6.7
2022-09-15T06:18:30.963Z,6.7
2022-09-15T06:19:18.228Z,15.6
2022-09-15T06:20:05.672Z,15.6
2022-09-15T06:20:52.935Z,15.6
2022-09-15T06:21:40.224Z,15.6
2022-09-15T06:22:27.637Z,15.6
2022-09-15T06:23:14.916Z,15.6
2022-09-15T06:24:02.196Z,15.6
2022-09-15T06:24:49.637Z,15.6
2022-09-15T06:25:37.085Z,15.6
2022-09-15T06:26:24.381Z,15.6
2022-09-15T06:27:11.756Z,15.6
2022-09-15T06:27:59.024Z,15.6
2022-09-15T06:28:46.300Z,15.6
2022-09-15T06:29:33.680Z,15.6
2022-09-15T06:30:20.940Z,15.6
2022-09-15T06:31:08.224Z,15.6
2022-09-15T06:31:55.721Z,15.6
2022-09-15T06:32:47.387Z,15.6
2022-09-15T06:33:35.449Z,15.6
2022-09-15T06:34:22.849Z,15.6
2022-09-15T06:35:10.129Z,15.6
2022-09-15T06:35:57.401Z,15.6
2022-09-15T06:36:44.802Z,15.6
2022-09-15T06:37:32.084Z,15.6
2022-09-15T06:38:19.405Z,15.6
2022-09-15T06:39:06.763Z,15.6
2022-09-15T06:39:54.087Z,15.6
2022-09-15T06:40:41.383Z,15.6
2022-09-15T06:41:38.257Z,15.6
2022-09-15T06:42:26.040Z,15.6
2022-09-15T06:43:13.445Z,15.6
2022-09-15T06:44:00.717Z,15.6
2022-09-15T06:44:47.990Z,15.6
2022-09-15T06:45:35.577Z,15.6
2022-09-15T06:46:22.927Z,15.6
2022-09-15T06:47:10.290Z,15.6
2022-09-15T06:48:20.242Z,15.6
2022-09-15T06:48:54.971Z,15.6
2022-09-15T06:49:42.345Z,15.6
2022-09-15T06:50:29.622Z,15.6
2022-09-15T06:51:16.946Z,15.6
2022-09-15T06:52:04.320Z,15.6
2022-09-15T06:52:51.611Z,15.6
2022-09-15T06:53:38.976Z,15.6
2022-09-15T06:54:26.300Z,15.6
2022-09-15T06:55:13.565Z,15.6
2022-09-15T06:56:00.841Z,15.6
2022-09-15T06:56:48.282Z,15.6
2022-09-15T06:57:35.546Z,15.6
2022-09-15T06:58:22.808Z,15.6
2022-09-15T06:59:10.232Z,15.6
2022-09-15T06:59:57.507Z,15.6
2022-09-15T07:00:44.780Z,15.6
2022-09-15T07:01:32.201Z,15.6
2022-09-15T07:02:19.633Z,15.6
2022-09-15T07:03:07.016Z,15.6
2022-09-15T07:03:54.386Z,15.6
2022-09-15T07:04:41.657Z,15.6
2022-09-15T07:05:28.940Z,15.6
2022-09-15T07:06:16.360Z,15.6
2022-09-15T07:07:03.641Z,15.6
2022-09-15T07:07:50.940Z,15.6
2022-09-15T07:08:38.329Z,15.6
2022-09-15T07:09:25.600Z,15.6
2022-09-15T07:10:12.879Z,15.6
2022-09-15T07:11:00.309Z,15.6
2022-09-15T07:11:47.689Z,15.6
2022-09-15T07:12:34.961Z,15.6
2022-09-15T07:13:22.420Z,15.6
2022-09-15T07:14:09.693Z,15.6
2022-09-15T07:14:56.953Z,15.6
2022-09-15T07:15:44.638Z,15.6
2022-09-15T07:16:31.952Z,15.6
2022-09-15T07:17:19.322Z,15.6
2022-09-15T07:18:06.702Z,15.6
2022-09-15T07:18:53.984Z,15.6
2022-09-15T07:19:41.320Z,13.2
2022-09-15T07:20:28.658Z,13.2
2022-09-15T07:21:15.940Z,13.2
2022-09-15T07:22:03.197Z,13.2
2022-09-15T07:22:50.610Z,13.2
2022-09-15T07:23:37.890Z,13.2
2022-09-15T07:24:25.178Z,13.2
2022-09-15T07:25:12.548Z,13.2
2022-09-15T07:25:59.818Z,13.2
2022-09-15T07:26:47.098Z,13.2
2022-09-15T07:27:34.521Z,13.2
2022-09-15T07:28:21.804Z,13.2
2022-09-15T07:29:09.149Z,13.2
2022-09-15T07:29:56.473Z,13.2
2022-09-15T07:30:43.739Z,13.2
2022-09-15T07:31:31.123Z,13.2
2022-09-15T07:32:18.453Z,13.2
2022-09-15T07:33:05.720Z,13.2
2022-09-15T07:33:53.040Z,13.2
2022-09-15T07:34:40.464Z,13.2
2022-09-15T07:35:27.733Z,13.2
2022-09-15T07:36:14.999Z,13.2
2022-09-15T07:37:02.411Z,13.2
2022-09-15T07:37:49.680Z,13.2
2022-09-15T07:38:36.969Z,13.2
2022-09-15T07:39:24.370Z,13.2
2022-09-15T07:40:11.731Z,13.2
2022-09-15T07:40:59.069Z,13.2
2022-09-15T07:41:46.506Z,13.2
2022-09-15T07:42:35.564Z,13.2
2022-09-15T07:44:10.029Z,13.2
2022-09-15T07:44:57.364Z,13.2
2022-09-15T07:45:44.695Z,13.2
2022-09-15T07:46:32.028Z,13.2
2022-09-15T07:47:19.306Z,13.2
2022-09-15T07:48:06.654Z,13.2
2022-09-15T07:48:53.975Z,13.2
2022-09-15T07:49:41.356Z,13.2
2022-09-15T07:50:28.643Z,13.2
2022-09-15T07:51:15.958Z,13.2
2022-09-15T07:52:03.296Z,13.2
2022-09-15T07:52:50.560Z,13.2
2022-09-15T07:53:37.844Z,13.2
2022-09-15T07:54:25.122Z,13.2
2022-09-15T07:55:12.452Z,13.2
2022-09-15T07:55:59.723Z,13.2
2022-09-15T07:56:47.004Z,13.2
2022-09-15T07:57:34.385Z,13.2
2022-09-15T07:58:21.655Z,13.2
2022-09-15T07:59:08.929Z,13.2
2022-09-15T07:59:56.236Z,13.2
2022-09-15T08:00:43.650Z,13.2
2022-09-15T08:01:31.011Z,13.2
2022-09-15T08:02:18.360Z,13.2
2022-09-15T08:03:05.706Z,13.2
2022-09-15T08:03:53.052Z,13.2
2022-09-15T08:04:40.401Z,13.2
2022-09-15T08:05:27.683Z,13.2
2022-09-15T08:06:14.947Z,13.2
2022-09-15T08:07:02.273Z,13.2
2022-09-15T08:07:49.533Z,13.2
2022-09-15T08:08:36.827Z,13.2
2022-09-15T08:09:24.121Z,13.2
2022-09-15T08:10:12.006Z,13.2
2022-09-15T08:10:59.293Z,13.2
2022-09-15T08:11:46.570Z,13.2
2022-09-15T08:12:34.017Z,13.2
2022-09-15T08:13:21.357Z,13.2
2022-09-15T08:14:08.664Z,13.2
2022-09-15T08:14:55.951Z,13.2
2022-09-15T08:15:43.329Z,13.2
2022-09-15T08:16:30.707Z,13.2
2022-09-15T08:17:18.115Z,13.2
2022-09-15T08:18:05.372Z,13.2
2022-09-15T08:18:52.717Z,13.2
2022-09-15T08:19:40.091Z,14.5
2022-09-15T08:20:27.365Z,14.5
2022-09-15T08:21:14.664Z,14.5
2022-09-15T08:22:01.956Z,14.5
2022-09-15T08:22:49.231Z,14.5
2022-09-15T08:23:36.510Z,14.5
2022-09-15T08:24:23.780Z,14.5
2022-09-15T08:25:11.103Z,14.5
2022-09-15T08:25:58.364Z,14.5
2022-09-15T08:26:45.648Z,14.5
2022-09-15T08:27:32.916Z,14.5
2022-09-15T08:28:20.216Z,14.5
2022-09-15T08:29:07.481Z,14.5
2022-09-15T08:29:54.759Z,14.5
2022-09-15T08:30:42.064Z,14.5
2022-09-15T08:31:29.409Z,14.5
2022-09-15T08:32:16.742Z,14.5
2022-09-15T08:33:04.005Z,14.5
2022-09-15T08:33:51.260Z,14.5
2022-09-15T08:34:38.677Z,14.5
2022-09-15T08:35:25.970Z,14.5
2022-09-15T08:36:13.279Z,14.5
2022-09-15T08:37:00.551Z,14.5
2022-09-15T08:37:48.083Z,14.5
2022-09-15T08:38:35.364Z,14.5
2022-09-15T08:39:22.728Z,14.5
2022-09-15T08:40:10.074Z,14.5
2022-09-15T08:40:57.412Z,14.5
2022-09-15T08:41:44.698Z,14.5
2022-09-15T08:42:31.994Z,14.5
2022-09-15T08:43:19.264Z,14.5
2022-09-15T08:44:06.530Z,14.5
2022-09-15T08:44:53.830Z,14.5
2022-09-15T08:45:41.109Z,14.5
2022-09-15T08:46:28.525Z,14.5
2022-09-15T08:47:15.849Z,14.5
2022-09-15T08:48:03.113Z,14.5
2022-09-15T08:48:50.394Z,14.5
2022-09-15T08:49:51.087Z,14.5
2022-09-15T08:50:34.954Z,14.5
2022-09-15T08:51:22.351Z,14.5
2022-09-15T08:52:09.660Z,14.5
2022-09-15T08:52:56.986Z,14.5
2022-09-15T08:53:44.377Z,14.5
2022-09-15T08:54:31.683Z,14.5
2022-09-15T08:55:18.964Z,14.5
2022-09-15T08:56:09.897Z,14.5
2022-09-15T08:56:57.427Z,14.5
2022-09-15T08:57:44.736Z,14.5
2022-09-15T08:58:32.015Z,14.5
2022-09-15T08:59:19.282Z,14.5
2022-09-15T09:00:06.709Z,14.5
2022-09-15T09:00:53.972Z,14.5
2022-09-15T09:01:41.297Z,14.5
2022-09-15T09:02:28.724Z,14.5
2022-09-15T09:03:16.017Z,14.5
2022-09-15T09:04:03.297Z,14.5
2022-09-15T09:04:50.698Z,14.5
2022-09-15T09:05:38.209Z,14.5
2022-09-15T09:06:25.480Z,14.5
2022-09-15T09:07:12.900Z,14.5
2022-09-15T09:08:00.173Z,14.5
2022-09-15T09:08:47.438Z,14.5
2022-09-15T09:09:34.853Z,14.5
2022-09-15T09:10:22.130Z,14.5
2022-09-15T09:11:09.413Z,14.5
2022-09-15T09:11:56.808Z,14.5
2022-09-15T09:12:44.072Z,14.5
2022-09-15T09:13:35.425Z,14.5
2022-09-15T09:14:23.068Z,14.5
2022-09-15T09:15:10.489Z,14.5
2022-09-15T09:15:57.808Z,14.5
2022-09-15T09:16:45.109Z,14.5
2022-09-15T09:17:32.540Z,14.5
2022-09-15T09:18:19.805Z,14.5
2022-09-15T09:19:07.117Z,14.5
2022-09-15T09:19:54.514Z,16.4
2022-09-15T09:20:41.796Z,16.4
2022-09-15T09:21:29.055Z,16.4
2022-09-15T09:22:16.497Z,16.4
2022-09-15T09:23:03.905Z,16.4
2022-09-15T09:23:51.266Z,16.4
2022-09-15T09:24:38.602Z,16.4
2022-09-15T09:25:28.113Z,16.4
2022-09-15T09:26:15.724Z,16.4
2022-09-15T09:27:03.146Z,16.4
2022-09-15T09:27:50.415Z,16.4
2022-09-15T09:28:37.690Z,16.4
2022-09-15T09:29:25.146Z,16.4
2022-09-15T09:30:12.425Z,16.4
2022-09-15T09:30:59.792Z,16.4
2022-09-15T09:31:47.135Z,16.4
2022-09-15T09:32:34.410Z,16.4
2022-09-15T09:33:21.709Z,16.4
2022-09-15T09:34:09.110Z,16.4
2022-09-15T09:34:56.389Z,16.4
2022-09-15T09:35:43.656Z,16.4
2022-09-15T09:36:31.065Z,16.4
2022-09-15T09:37:18.343Z,16.4
2022-09-15T09:38:05.623Z,16.4
2022-09-15T09:38:53.013Z,16.4
2022-09-15T09:39:40.290Z,16.4
2022-09-15T09:40:27.699Z,16.4
2022-09-15T09:41:15.019Z,16.4
2022-09-15T09:42:02.301Z,16.4
2022-09-15T09:42:49.613Z,16.4
2022-09-15T09:43:37.108Z,16.4
2022-09-15T09:44:24.372Z,16.4
2022-09-15T09:45:11.657Z,16.4
2022-09-15T09:45:59.064Z,16.4
2022-09-15T09:46:46.364Z,16.4
2022-09-15T09:47:33.667Z,16.4
2022-09-15T09:48:21.041Z,16.4
2022-09-15T09:49:08.313Z,16.4
2022-09-15T09:49:55.587Z,16.4
2022-09-15T09:50:42.991Z,16.4
2022-09-15T09:51:30.369Z,16.4
2022-09-15T09:52:21.890Z,16.4
2022-09-15T09:53:09.284Z,16.4
2022-09-15T09:53:56.769Z,16.4
2022-09-15T09:54:44.213Z,16.4
2022-09-15T09:55:31.484Z,16.4
2022-09-15T09:56:18.923Z,16.4
2022-09-15T09:57:06.189Z,16.4
2022-09-15T09:57:53.458Z,16.4
2022-09-15T09:58:40.890Z,16.4
2022-09-15T09:59:28.173Z,16.4
2022-09-15T10:00:15.454Z,16.4
2022-09-15T10:01:02.916Z,16.4
2022-09-15T10:01:50.290Z,16.4
2022-09-15T10:02:37.604Z,16.4
2022-09-15T10:03:27.110Z,16.4
2022-09-15T10:04:18.041Z,16.4
2022-09-15T10:05:05.423Z,16.4
2022-09-15T10:05:53.116Z,16.4
2022-09-15T10:06:40.406Z,16.4
2022-09-15T10:07:27.776Z,16.4
2022-09-15T10:08:15.042Z,16.4
2022-09-15T10:09:02.316Z,16.4
2022-09-15T10:09:49.717Z,16.4
2022-09-15T10:10:36.997Z,16.4
2022-09-15T10:11:24.276Z,16.4
2022-09-15T10:12:11.734Z,16.4
2022-09-15T10:19:44.027Z,16.4
2022-09-15T10:27:16.335Z,14.3
2022-09-15T10:34:48.652Z,14.3
2022-09-15T10:35:36.056Z,14.3
2022-09-15T10:36:23.320Z,14.3
2022-09-15T10:37:10.584Z,14.3
2022-09-15T10:37:57.910Z,14.3
2022-09-15T10:38:45.280Z,14.3
2022-09-15T10:39:32.665Z,14.3
2022-09-15T10:40:20.220Z,14.3
2022-09-15T10:41:07.518Z,14.3
2022-09-15T10:41:54.806Z,14.3
2022-09-15T10:42:42.130Z,14.3
2022-09-15T10:43:29.408Z,14.3
2022-09-15T10:44:16.728Z,14.3
2022-09-15T10:45:03.989Z,14.3
2022-09-15T10:45:51.294Z,14.3
2022-09-15T10:46:39.438Z,14.3
2022-09-15T10:47:26.845Z,14.3
2022-09-15T10:48:14.300Z,14.3
2022-09-15T10:49:01.575Z,14.3
2022-09-15T10:49:48.842Z,14.3
2022-09-15T10:50:36.245Z,14.3
2022-09-15T10:51:23.982Z,14.3
2022-09-15T10:52:11.752Z,14.3
2022-09-15T10:52:59.321Z,14.3
2022-09-15T10:53:46.750Z,14.3
2022-09-15T10:54:34.036Z,14.3
2022-09-15T10:55:36.775Z,14.3
2022-09-15T10:56:18.553Z,14.3
2022-09-15T10:57:06.036Z,14.3
2022-09-15T10:57:53.303Z,14.3
2022-09-15T10:58:43.530Z,14.3
2022-09-15T10:59:32.965Z,14.3
2022-09-15T11:00:20.405Z,14.3
2022-09-15T11:01:07.720Z,14.3
2022-09-15T11:01:55.099Z,14.3
2022-09-15T11:02:42.442Z,14.3
2022-09-15T11:03:29.716Z,14.3
2022-09-15T11:04:17.003Z,14.3
2022-09-15T11:05:04.386Z,14.3
2022-09-15T11:05:51.656Z,14.3
2022-09-15T11:06:38.918Z,14.3
2022-09-15T11:07:26.329Z,14.3
2022-09-15T11:08:13.611Z,14.3
2022-09-15T11:09:00.873Z,14.3
2022-09-15T11:09:48.937Z,14.3
2022-09-15T11:10:36.313Z,14.3
2022-09-15T11:11:23.603Z,14.3
2022-09-15T11:12:10.922Z,14.3
2022-09-15T11:12:58.347Z,14.3
2022-09-15T11:13:45.644Z,14.3
2022-09-15T11:14:33.081Z,14.3
2022-09-15T11:15:20.341Z,14.3
2022-09-15T11:16:07.657Z,14.3
2022-09-15T11:16:55.139Z,14.3
2022-09-15T11:17:42.445Z,14.3
2022-09-15T11:18:29.724Z,14.3
2022-09-15T11:19:17.007Z,10.0
2022-09-15T11:20:04.432Z,10.0
2022-09-15T11:20:51.714Z,10.0
2022-09-15T11:21:38.989Z,10.0
2022-09-15T11:22:26.404Z,10.0
2022-09-15T11:23:13.674Z,10.0
2022-09-15T11:24:01.002Z,10.0
2022-09-15T11:24:48.416Z,10.0
2022-09-15T11:25:35.699Z,10.0
2022-09-15T11:26:22.981Z,10.0
2022-09-15T11:27:10.428Z,10.0
2022-09-15T11:27:57.700Z,10.0
2022-09-15T11:28:44.970Z,10.0
2022-09-15T11:29:32.396Z,10.0
2022-09-15T11:30:19.674Z,10.0
2022-09-15T11:31:06.997Z,10.0
2022-09-15T11:31:54.481Z,10.0
2022-09-15T11:32:41.838Z,10.0
2022-09-15T11:33:29.114Z,10.0
2022-09-15T11:34:16.538Z,10.0
2022-09-15T11:35:03.812Z,10.0
2022-09-15T11:35:51.134Z,10.0
2022-09-15T11:36:38.514Z,10.0
2022-09-15T11:37:25.784Z,10.0
2022-09-15T11:38:13.272Z,10.0
2022-09-15T11:39:00.568Z,10.0
2022-09-15T11:39:47.904Z,10.0
2022-09-15T11:40:35.304Z,10.0
2022-09-15T11:41:22.601Z,10.0
2022-09-15T11:42:09.891Z,10.0
2022-09-15T11:42:57.162Z,10.0
2022-09-15T11:43:44.553Z,10.0
2022-09-15T11:44:31.821Z,10.0
2022-09-15T11:45:19.081Z,10.0
2022-09-15T11:46:06.519Z,10.0
2022-09-15T11:46:53.877Z,10.0
2022-09-15T11:47:41.189Z,10.0
2022-09-15T11:48:28.587Z,10.0
2022-09-15T11:49:15.866Z,10.0
2022-09-15T11:50:03.133Z,10.0
2022-09-15T11:50:50.535Z,10.0
2022-09-15T11:51:37.796Z,10.0
2022-09-15T11:52:25.085Z,10.0
2022-09-15T11:53:12.483Z,10.0
2022-09-15T11:53:59.757Z,10.0
2022-09-15T11:54:47.051Z,10.0
2022-09-15T11:55:34.476Z,10.0
2022-09-15T11:56:21.759Z,10.0
2022-09-15T11:57:09.041Z,10.0
2022-09-15T11:57:56.487Z,10.0
2022-09-15T11:58:43.770Z,10.0
2022-09-15T11:59:31.080Z,10.0
2022-09-15T12:00:18.457Z,10.0
2022-09-15T12:01:05.752Z,10.0
2022-09-15T12:01:53.077Z,10.0
2022-09-15T12:02:40.461Z,10.0
2022-09-15T12:03:27.767Z,10.0
2022-09-15T12:04:15.028Z,10.0
2022-09-15T12:05:02.450Z,10.0
2022-09-15T12:05:49.713Z,10.0
2022-09-15T12:06:36.981Z,10.0
2022-09-15T12:07:24.393Z,10.0
2022-09-15T12:08:11.660Z,10.0
2022-09-15T12:08:58.942Z,10.0
2022-09-15T12:09:46.346Z,10.0
2022-09-15T12:10:33.649Z,10.0
2022-09-15T12:11:20.932Z,10.0
2022-09-15T12:12:08.354Z,10.0
2022-09-15T12:12:55.665Z,10.0
2022-09-15T12:13:42.956Z,10.0
2022-09-15T12:14:30.547Z,10.0
2022-09-15T12:15:17.841Z,10.0
2022-09-15T12:16:05.215Z,10.0
2022-09-15T12:16:53.229Z,10.0
2022-09-15T12:17:40.525Z,10.0
2022-09-15T12:18:38.539Z,10.0
2022-09-15T12:19:25.049Z,13.7
2022-09-15T12:20:12.485Z,13.7
2022-09-15T12:20:59.754Z,13.7
2022-09-15T12:21:47.025Z,13.7
2022-09-15T12:22:34.417Z,13.7
2022-09-15T12:23:21.693Z,13.7
2022-09-15T12:24:08.977Z,13.7
2022-09-15T12:25:00.646Z,13.7
2022-09-15T12:25:48.340Z,13.7
2022-09-15T12:26:35.655Z,13.7
2022-09-15T12:27:22.948Z,13.7
2022-09-15T12:28:10.248Z,13.7
2022-09-15T12:28:57.640Z,13.7
2022-09-15T12:29:44.955Z,13.7
2022-09-15T12:30:32.233Z,13.7
2022-09-15T12:31:19.706Z,13.7
2022-09-15T12:32:06.984Z,13.7
2022-09-15T12:32:54.273Z,13.7
2022-09-15T12:33:41.674Z,13.7
2022-09-15T12:34:28.975Z,13.7
2022-09-15T12:35:16.268Z,13.7
2022-09-15T12:36:03.633Z,13.7
2022-09-15T12:36:50.939Z,13.7
2022-09-15T12:37:38.228Z,13.7
2022-09-15T12:38:25.644Z,13.7
2022-09-15T12:39:12.922Z,13.7
2022-09-15T12:40:00.333Z,13.7
2022-09-15T12:40:47.689Z,13.7
2022-09-15T12:41:34.974Z,13.7
2022-09-15T12:42:22.272Z,13.7
2022-09-15T12:43:09.800Z,13.7
2022-09-15T12:43:57.120Z,13.7
2022-09-15T12:44:44.377Z,13.7
2022-09-15T12:45:31.858Z,13.7
2022-09-15T12:46:19.156Z,13.7
2022-09-15T12:47:06.469Z,13.7
2022-09-15T12:47:53.956Z,13.7
2022-09-15T12:48:45.469Z,13.7
2022-09-15T12:49:34.682Z,13.7
2022-09-15T12:50:22.117Z,13.7
2022-09-15T12:51:09.376Z,13.7
2022-09-15T12:51:56.641Z,13.7
2022-09-15T12:52:44.067Z,13.7
2022-09-15T12:53:31.446Z,13.7
2022-09-15T12:54:18.783Z,13.7
2022-09-15T12:55:06.626Z,13.7
2022-09-15T12:55:54.339Z,13.7
2022-09-15T12:56:41.625Z,13.7
2022-09-15T12:57:29.087Z,13.7
2022-09-15T12:58:16.457Z,13.7
2022-09-15T12:59:06.518Z,13.7
2022-09-15T12:59:54.321Z,13.7
2022-09-15T13:01:00.705Z,13.7
2022-09-15T13:01:39.019Z,13.7
2022-09-15T13:02:26.586Z,13.7
2022-09-15T13:03:14.716Z,13.7
2022-09-15T13:04:03.611Z,13.7
2022-09-15T13:04:52.828Z,13.7
2022-09-15T13:05:41.901Z,13.7
2022-09-15T13:06:30.745Z,13.7
2022-09-15T13:07:18.254Z,13.7
2022-09-15T13:08:05.554Z,13.7
2022-09-15T13:08:52.845Z,13.7
2022-09-15T13:09:40.128Z,13.7
2022-09-15T13:10:27.430Z,13.7
2022-09-15T13:11:14.721Z,13.7
2022-09-15T13:12:02.023Z,13.7
2022-09-15T13:12:49.322Z,13.7
2022-09-15T13:13:36.606Z,13.7
2022-09-15T13:14:23.877Z,13.7
2022-09-15T13:15:11.169Z,13.7
2022-09-15T13:15:58.490Z,13.7
2022-09-15T13:16:45.760Z,13.7
2022-09-15T13:17:33.122Z,13.7
2022-09-15T13:18:20.404Z,13.7
2022-09-15T13:19:07.667Z,13.7
2022-09-15T13:19:55.060Z,17.6
2022-09-15T13:20:42.324Z,17.6
2022-09-15T13:21:29.613Z,17.6
2022-09-15T13:22:16.964Z,17.6
2022-09-15T13:23:04.288Z,17.6
2022-09-15T13:23:51.553Z,17.6
2022-09-15T13:24:38.913Z,17.6
2022-09-15T13:25:26.180Z,17.6
2022-09-15T13:26:13.454Z,17.6
2022-09-15T13:27:00.793Z,17.6
2022-09-15T13:27:48.079Z,17.6
2022-09-15T13:28:35.351Z,17.6
2022-09-15T13:29:22.698Z,17.6
2022-09-15T13:30:10.132Z,17.6
2022-09-15T13:30:57.483Z,17.6
2022-09-15T13:31:44.778Z,17.6
2022-09-15T13:32:32.066Z,17.6
2022-09-15T13:33:19.497Z,17.6
2022-09-15T13:35:14.251Z,17.6
2022-09-15T13:36:01.409Z,17.6
2022-09-15T13:38:43.342Z,17.6
2022-09-15T13:39:30.736Z,17.6
2022-09-15T13:40:18.077Z,17.6
2022-09-15T13:41:05.419Z,17.6
2022-09-15T13:41:52.841Z,17.6
2022-09-15T13:42:40.130Z,17.6
2022-09-15T13:43:27.408Z,17.6
2022-09-15T13:44:14.796Z,17.6
2022-09-15T13:45:02.079Z,17.6
2022-09-15T13:45:49.399Z,17.6
2022-09-15T13:46:36.758Z,17.6
2022-09-15T13:47:24.037Z,17.6
2022-09-15T13:48:11.314Z,17.6
2022-09-15T13:48:58.703Z,17.6
2022-09-15T13:49:45.975Z,17.6
2022-09-15T13:50:33.379Z,17.6
2022-09-15T13:51:20.710Z,17.6
2022-09-15T13:52:08.257Z,17.6
2022-09-15T13:52:55.609Z,17.6
2022-09-15T13:53:43.132Z,17.6
2022-09-15T13:54:30.526Z,17.6
2022-09-15T13:55:17.826Z,17.6
2022-09-15T13:56:05.200Z,17.6
2022-09-15T13:56:52.486Z,17.6
2022-09-15T13:59:34.317Z,17.6
2022-09-15T14:00:23.198Z,17.6
2022-09-15T14:01:10.888Z,17.6
2022-09-15T14:01:58.275Z,17.6
2022-09-15T14:02:45.983Z,17.6
2022-09-15T14:03:33.335Z,17.6
2022-09-15T14:04:20.617Z,17.6
2022-09-15T14:05:07.948Z,17.6
2022-09-15T14:05:55.259Z,17.6
2022-09-15T14:06:42.538Z,17.6
2022-09-15T14:07:29.837Z,17.6
2022-09-15T14:08:17.132Z,17.6
2022-09-15T14:09:04.412Z,17.6
2022-09-15T14:09:51.736Z,17.6
2022-09-15T14:10:39.246Z,17.6
2022-09-15T14:11:26.550Z,17.6
2022-09-15T14:12:13.862Z,17.6
2022-09-15T14:13:01.156Z,17.6
2022-09-15T14:13:48.429Z,17.6
2022-09-15T14:14:35.723Z,17.6
2022-09-15T14:15:22.988Z,17.6
2022-09-15T14:16:12.480Z,17.6
2022-09-15T14:17:00.092Z,17.6
2022-09-15T14:17:47.433Z,17.6
2022-09-15T14:18:34.742Z,17.6
2022-09-15T14:19:22.239Z,14.8
2022-09-15T14:20:09.539Z,14.8
2022-09-15T14:20:56.795Z,14.8
2022-09-15T14:21:44.122Z,14.8
2022-09-15T14:22:31.461Z,14.8
2022-09-15T14:23:18.747Z,14.8
2022-09-15T14:24:06.022Z,14.8
2022-09-15T14:24:53.418Z,14.8
2022-09-15T14:25:40.697Z,14.8
2022-09-15T14:26:28.163Z,14.8
2022-09-15T14:27:15.444Z,14.8
2022-09-15T14:28:02.717Z,14.8
2022-09-15T14:28:49.984Z,14.8
2022-09-15T14:29:37.387Z,14.8
2022-09-15T14:30:24.652Z,14.8
2022-09-15T14:31:11.930Z,14.8
2022-09-15T14:31:59.438Z,14.8
2022-09-15T14:32:46.732Z,14.8
2022-09-15T14:33:37.630Z,14.8
2022-09-15T14:34:25.521Z,14.8
2022-09-15T14:35:14.963Z,14.8
2022-09-15T14:36:06.044Z,14.8
2022-09-15T14:36:53.762Z,14.8
2022-09-15T14:37:41.167Z,14.8
2022-09-15T14:38:28.472Z,14.8
2022-09-15T14:39:15.731Z,14.8
2022-09-15T14:40:03.109Z,14.8
2022-09-15T14:40:50.433Z,14.8
2022-09-15T14:41:37.726Z,14.8
2022-09-15T14:42:24.999Z,14.8
2022-09-15T14:43:15.281Z,14.8
2022-09-15T14:44:06.013Z,14.8
2022-09-15T14:45:54.994Z,14.8
2022-09-15T14:46:45.842Z,14.8
2022-09-15T14:47:33.216Z,14.8
2022-09-15T14:48:20.482Z,14.8
2022-09-15T14:49:07.774Z,14.8
2022-09-15T14:49:55.184Z,14.8
2022-09-15T14:50:42.465Z,14.8
2022-09-15T14:51:29.741Z,14.8
2022-09-15T14:52:17.187Z,14.8
2022-09-15T14:53:04.448Z,14.8
2022-09-15T14:53:51.718Z,14.8
2022-09-15T14:54:39.174Z,14.8
2022-09-15T14:55:26.934Z,14.8
2022-09-15T14:56:14.258Z,14.8